createdAt,value
2019-02-25T00:01:56.978Z,37.17
2019-02-25T00:05:19.331Z,34.93
2019-02-25T00:07:48.984Z,34.20
2019-02-25T00:10:42.146Z,36.10
2019-02-25T00:13:18.087Z,31.97
2019-02-25T00:19:13.544Z,29.60
2019-02-25T00:21:46.249Z,35.60
2019-02-25T00:24:32.476Z,28.83
2019-02-25T00:27:12.244Z,29.60
2019-02-25T00:29:44.403Z,31.00
2019-02-25T00:32:15.159Z,30.17
2019-02-25T00:34:45.756Z,30.13
2019-02-25T00:37:46.441Z,26.07
2019-02-25T00:40:41.749Z,32.80
2019-02-25T00:43:44.280Z,31.47
2019-02-25T00:46:21.635Z,27.10
2019-02-25T00:49:12.884Z,28.30
2019-02-25T00:51:47.607Z,23.10
2019-02-25T00:54:43.834Z,26.47
2019-02-25T00:57:39.974Z,27.20
2019-02-25T01:00:14.183Z,19.90
2019-02-25T01:03:20.614Z,25.00
2019-02-25T01:07:29.724Z,25.40
2019-02-25T01:08:48.716Z,27.07
2019-02-25T01:11:31.859Z,24.00
2019-02-25T01:14:25.239Z,25.90
2019-02-25T01:17:18.372Z,21.60
2019-02-25T01:19:54.922Z,20.43
2019-02-25T01:22:44.705Z,18.47
2019-02-25T01:25:23.605Z,18.40
2019-02-25T01:28:31.578Z,16.57
2019-02-25T01:31:10.661Z,17.50
2019-02-25T01:33:48.849Z,18.50
2019-02-25T01:36:28.328Z,17.40
2019-02-25T01:39:23.181Z,19.20
2019-02-25T01:41:48.447Z,15.73
2019-02-25T01:44:19.304Z,21.47
2019-02-25T01:46:58.046Z,16.57
2019-02-25T01:49:44.722Z,15.23
2019-02-25T01:52:20.510Z,18.10
2019-02-25T01:55:18.531Z,14.80
2019-02-25T01:57:49.534Z,17.73
2019-02-25T02:00:45.565Z,15.87
2019-02-25T02:03:45.770Z,17.53
2019-02-25T02:09:55.402Z,12.87
2019-02-25T02:13:20.621Z,12.80
2019-02-25T02:16:19.012Z,16.97
2019-02-25T02:18:23.097Z,15.80
2019-02-25T02:21:11.267Z,16.23
2019-02-25T02:23:48.770Z,16.47
2019-02-25T02:26:22.959Z,17.33
2019-02-25T02:28:53.789Z,14.87
2019-02-25T02:31:43.185Z,20.20
2019-02-25T02:34:24.519Z,15.47
2019-02-25T02:37:13.714Z,15.50
2019-02-25T02:40:09.009Z,18.33
2019-02-25T02:42:26.000Z,13.60
2019-02-25T02:45:46.148Z,17.17
2019-02-25T02:48:55.358Z,19.13
2019-02-25T02:51:58.909Z,18.03
2019-02-25T02:54:42.991Z,16.53
2019-02-25T02:57:16.737Z,14.80
2019-02-25T02:59:55.558Z,17.80
2019-02-25T03:02:57.918Z,17.30
2019-02-25T03:05:54.109Z,18.10
2019-02-25T03:11:28.102Z,16.00
2019-02-25T03:13:59.143Z,13.57
2019-02-25T03:16:51.742Z,14.00
2019-02-25T03:19:30.204Z,15.03
2019-02-25T03:22:24.187Z,16.47
2019-02-25T03:24:55.940Z,14.80
2019-02-25T03:27:27.345Z,14.90
2019-02-25T03:30:25.906Z,18.73
2019-02-25T03:33:03.314Z,14.33
2019-02-25T03:35:50.414Z,17.07
2019-02-25T03:38:23.018Z,16.33
2019-02-25T03:41:23.284Z,16.30
2019-02-25T03:43:54.635Z,15.03
2019-02-25T03:46:55.238Z,14.80
2019-02-25T03:49:29.700Z,15.80
2019-02-25T03:52:13.574Z,15.93
2019-02-25T03:57:45.998Z,15.50
2019-02-25T04:00:19.810Z,14.57
2019-02-25T04:03:13.872Z,15.30
2019-02-25T04:05:45.387Z,14.93
2019-02-25T04:08:16.637Z,16.83
2019-02-25T04:11:01.182Z,15.27
2019-02-25T04:13:45.865Z,16.20
2019-02-25T04:16:20.683Z,17.53
2019-02-25T04:18:54.125Z,18.80
2019-02-25T04:22:12.816Z,16.13
2019-02-25T04:24:52.583Z,13.60
2019-02-25T04:27:48.323Z,14.57
2019-02-25T04:30:46.246Z,15.50
2019-02-25T04:33:19.998Z,17.40
2019-02-25T04:35:53.971Z,16.03
2019-02-25T04:38:46.602Z,18.50
2019-02-25T04:41:37.829Z,15.67
2019-02-25T04:44:39.706Z,16.37
2019-02-25T04:47:15.171Z,14.03
2019-02-25T04:50:05.170Z,16.40
2019-02-25T04:52:50.603Z,17.23
2019-02-25T04:55:47.235Z,14.77
2019-02-25T04:58:18.191Z,13.90
2019-02-25T05:04:12.690Z,16.83
2019-02-25T05:06:43.719Z,15.03
2019-02-25T05:09:18.467Z,16.57
2019-02-25T05:11:49.391Z,17.93
2019-02-25T05:14:20.856Z,17.13
2019-02-25T05:19:47.367Z,15.90
2019-02-25T05:22:27.868Z,15.20
2019-02-25T05:25:16.802Z,21.83
2019-02-25T05:27:49.671Z,12.90
2019-02-25T05:30:40.882Z,18.93
2019-02-25T05:33:17.615Z,16.10
2019-02-25T05:35:54.142Z,15.43
2019-02-25T05:38:30.685Z,16.80
2019-02-25T05:41:12.302Z,15.20
2019-02-25T05:43:46.721Z,18.07
2019-02-25T05:46:20.699Z,11.93
2019-02-25T05:49:04.285Z,14.33
2019-02-25T05:51:35.191Z,14.27
2019-02-25T05:54:08.031Z,15.27
2019-02-25T05:56:43.685Z,15.57
2019-02-25T05:59:23.928Z,16.73
2019-02-25T06:02:07.986Z,16.80
2019-02-25T06:04:44.239Z,18.43
2019-02-25T06:07:38.524Z,24.87
2019-02-25T06:10:09.741Z,11.63
2019-02-25T06:12:43.939Z,14.60
2019-02-25T06:15:17.817Z,15.00
2019-02-25T06:18:10.013Z,17.23
2019-02-25T06:20:59.009Z,20.13
2019-02-25T06:23:39.469Z,15.00
2019-02-25T06:26:13.516Z,17.30
2019-02-25T06:29:05.108Z,18.40
2019-02-25T06:31:38.218Z,22.53
2019-02-25T06:34:12.769Z,15.13
2019-02-25T06:37:02.975Z,17.30
2019-02-25T06:39:39.808Z,15.53
2019-02-25T06:42:10.788Z,12.57
2019-02-25T06:44:42.044Z,16.87
2019-02-25T06:47:33.985Z,17.57
2019-02-25T06:50:39.617Z,18.57
2019-02-25T06:56:41.146Z,14.57
2019-02-25T06:59:31.999Z,18.13
2019-02-25T07:02:14.606Z,14.87
2019-02-25T07:05:32.399Z,14.33
2019-02-25T07:08:40.567Z,16.97
2019-02-25T07:12:02.625Z,16.60
2019-02-25T07:15:02.730Z,16.90
2019-02-25T07:18:11.693Z,15.33
2019-02-25T07:21:38.675Z,17.53
2019-02-25T07:25:19.787Z,13.43
2019-02-25T07:28:30.273Z,11.77
2019-02-25T07:31:41.033Z,16.27
2019-02-25T07:34:47.924Z,15.27
2019-02-25T07:37:44.755Z,16.63
2019-02-25T07:48:33.665Z,20.13
2019-02-25T07:58:49.699Z,12.10
2019-02-25T08:01:12.375Z,11.60
2019-02-25T08:04:23.650Z,11.77
2019-02-25T08:07:19.479Z,13.93
2019-02-25T08:10:20.931Z,17.20
2019-02-25T08:13:42.919Z,16.93
2019-02-25T08:19:26.069Z,15.53
2019-02-25T08:22:19.530Z,18.00
2019-02-25T08:25:09.197Z,20.93
2019-02-25T08:27:59.476Z,13.03
2019-02-25T08:30:40.878Z,15.03
2019-02-25T08:33:30.851Z,17.60
2019-02-25T08:37:10.638Z,18.10
2019-02-25T08:39:51.731Z,19.10
2019-02-25T08:42:47.152Z,31.67
2019-02-25T08:45:55.461Z,15.97
2019-02-25T08:48:35.682Z,20.00
2019-02-25T08:51:06.609Z,14.03
2019-02-25T08:53:37.454Z,21.57
2019-02-25T08:56:08.525Z,23.60
2019-02-25T08:58:39.467Z,32.73
2019-02-25T09:01:12.090Z,25.53
2019-02-25T09:03:44.804Z,21.80
2019-02-25T09:06:15.650Z,20.40
2019-02-25T09:08:46.642Z,19.90
2019-02-25T09:11:19.359Z,21.37
2019-02-25T09:13:50.139Z,21.83
2019-02-25T09:16:21.667Z,16.30
2019-02-25T09:18:52.565Z,19.93
2019-02-25T09:21:31.582Z,15.10
2019-02-25T09:23:56.500Z,19.23
2019-02-25T09:26:27.212Z,21.03
2019-02-25T09:28:57.938Z,16.60
2019-02-25T09:31:29.014Z,19.87
2019-02-25T09:34:00.028Z,23.03
2019-02-25T09:36:30.841Z,20.80
2019-02-25T09:39:01.796Z,19.53
2019-02-25T09:41:32.637Z,19.03
2019-02-25T09:44:03.634Z,21.23
2019-02-25T09:46:34.363Z,37.13
2019-02-25T09:49:05.146Z,33.83
2019-02-25T09:51:36.072Z,22.07
2019-02-25T09:54:06.737Z,25.20
2019-02-25T09:56:37.483Z,21.50
2019-02-25T09:59:08.321Z,24.77
2019-02-25T10:01:39.246Z,19.30
2019-02-25T10:04:09.968Z,21.37
2019-02-25T10:06:40.980Z,21.40
2019-02-25T10:09:11.735Z,21.93
2019-02-25T10:11:42.521Z,22.37
2019-02-25T10:14:14.169Z,17.80
2019-02-25T10:19:11.930Z,21.70
2019-02-25T10:21:42.702Z,20.13
2019-02-25T10:24:13.417Z,21.37
2019-02-25T10:26:44.265Z,17.30
2019-02-25T10:29:15.294Z,33.43
2019-02-25T10:31:46.729Z,18.23
2019-02-25T10:34:18.095Z,18.27
2019-02-25T10:36:50.287Z,21.27
2019-02-25T10:39:21.927Z,22.63
2019-02-25T10:41:53.300Z,17.03
2019-02-25T10:44:24.987Z,22.73
2019-02-25T10:46:55.962Z,17.80
2019-02-25T10:49:28.747Z,20.27
2019-02-25T10:51:59.242Z,18.20
2019-02-25T10:54:29.905Z,19.83
2019-02-25T10:57:06.608Z,22.13
2019-02-25T10:59:39.104Z,22.37
2019-02-25T11:02:17.009Z,19.20
2019-02-25T11:04:49.298Z,21.40
2019-02-25T11:07:20.351Z,18.50
2019-02-25T11:09:58.253Z,31.73
2019-02-25T11:12:30.115Z,18.77
2019-02-25T11:15:01.767Z,25.57
2019-02-25T11:17:32.652Z,14.10
2019-02-25T11:20:05.569Z,24.60
2019-02-25T11:22:37.626Z,17.33
2019-02-25T11:25:15.986Z,16.83
2019-02-25T11:27:47.241Z,15.83
2019-02-25T11:30:19.359Z,18.03
2019-02-25T11:32:53.209Z,20.00
2019-02-25T11:35:23.691Z,20.37
2019-02-25T11:37:56.662Z,20.30
2019-02-25T11:40:28.951Z,17.20
2019-02-25T11:42:59.750Z,21.13
2019-02-25T11:45:30.750Z,18.40
2019-02-25T11:48:01.333Z,24.13
2019-02-25T11:50:32.090Z,16.27
2019-02-25T11:53:02.840Z,22.80
2019-02-25T11:55:33.701Z,17.23
2019-02-25T11:58:04.597Z,17.30
2019-02-25T12:00:35.376Z,26.27
2019-02-25T12:03:06.028Z,20.90
2019-02-25T12:05:36.705Z,15.17
2019-02-25T12:08:07.477Z,13.27
2019-02-25T12:10:38.077Z,17.70
2019-02-25T12:13:08.779Z,14.13
2019-02-25T12:15:39.425Z,18.67
2019-02-25T12:18:10.359Z,15.93
2019-02-25T12:21:07.224Z,17.40
2019-02-25T12:24:22.293Z,14.53
2019-02-25T12:26:57.848Z,15.63
2019-02-25T12:32:54.314Z,15.73
2019-02-25T12:35:33.992Z,20.83
2019-02-25T12:38:18.711Z,17.10
2019-02-25T12:41:11.768Z,15.67
2019-02-25T12:44:14.567Z,15.37
2019-02-25T12:47:30.022Z,12.17
2019-02-25T12:50:22.160Z,25.20
2019-02-25T12:55:51.701Z,14.63
2019-02-25T12:58:24.419Z,20.73
2019-02-25T13:01:17.733Z,19.70
2019-02-25T13:04:18.607Z,17.67
2019-02-25T13:06:59.865Z,17.83
2019-02-25T13:09:30.862Z,21.80
2019-02-25T13:12:01.587Z,19.00
2019-02-25T13:14:32.461Z,14.63
2019-02-25T13:17:03.237Z,23.70
2019-02-25T13:19:34.206Z,15.43
2019-02-25T13:22:05.023Z,16.80
2019-02-25T13:24:46.292Z,18.60
2019-02-25T13:27:17.245Z,16.50
2019-02-25T13:29:49.668Z,15.70
2019-02-25T13:32:20.814Z,19.70
2019-02-25T13:34:51.831Z,20.33
2019-02-25T13:37:22.719Z,16.80
2019-02-25T13:39:53.625Z,16.60
2019-02-25T13:42:24.618Z,18.17
2019-02-25T13:44:55.468Z,22.83
2019-02-25T13:47:26.528Z,20.40
2019-02-25T13:49:57.534Z,18.93
2019-02-25T13:52:28.481Z,16.20
2019-02-25T13:54:59.391Z,24.53
2019-02-25T13:57:30.264Z,17.67
2019-02-25T14:00:01.368Z,24.23
2019-02-25T14:02:32.209Z,25.37
2019-02-25T14:05:03.797Z,20.50
2019-02-25T14:07:34.457Z,17.63
2019-02-25T14:10:07.995Z,17.40
2019-02-25T14:12:38.986Z,17.40
2019-02-25T14:15:09.980Z,16.77
2019-02-25T14:17:41.380Z,16.60
2019-02-25T14:20:17.147Z,12.17
2019-02-25T14:22:48.590Z,13.70
2019-02-25T14:25:21.531Z,24.87
2019-02-25T14:27:52.669Z,15.53
2019-02-25T14:30:26.867Z,14.20
2019-02-25T14:32:58.491Z,18.60
2019-02-25T14:35:32.296Z,11.30
2019-02-25T14:38:07.462Z,17.87
2019-02-25T14:40:39.394Z,13.43
2019-02-25T14:43:12.601Z,21.70
2019-02-25T14:45:41.897Z,17.50
2019-02-25T14:48:18.146Z,12.80
2019-02-25T14:50:50.809Z,17.20
2019-02-25T14:53:21.787Z,27.57
2019-02-25T14:55:55.275Z,17.53
2019-02-25T14:58:25.214Z,15.57
2019-02-25T15:00:55.835Z,22.70
2019-02-25T15:03:28.692Z,29.60
2019-02-25T15:05:59.615Z,15.20
2019-02-25T15:08:33.139Z,14.67
2019-02-25T15:11:07.114Z,12.80
2019-02-25T15:13:39.127Z,23.90
2019-02-25T15:16:10.216Z,20.37
2019-02-25T15:18:43.945Z,19.83
2019-02-25T15:21:17.812Z,17.40
2019-02-25T15:23:48.738Z,18.30
2019-02-25T15:26:21.556Z,18.43
2019-02-25T15:28:56.064Z,16.87
2019-02-25T15:31:25.169Z,17.10
2019-02-25T15:33:58.180Z,12.03
2019-02-25T15:36:32.031Z,20.10
2019-02-25T15:39:05.454Z,18.40
2019-02-25T15:41:38.509Z,11.50
2019-02-25T15:44:23.676Z,9.67
2019-02-25T15:46:54.909Z,12.67
2019-02-25T15:49:29.006Z,16.60
2019-02-25T15:51:59.789Z,13.47
2019-02-25T15:54:32.764Z,18.37
2019-02-25T15:57:03.405Z,16.93
2019-02-25T15:59:35.921Z,20.20
2019-02-25T16:02:09.392Z,18.07
2019-02-25T16:04:42.211Z,17.63
2019-02-25T16:07:13.244Z,16.00
2019-02-25T16:09:44.633Z,25.80
2019-02-25T16:12:15.558Z,26.07
2019-02-25T16:14:47.209Z,18.97
2019-02-25T16:17:19.040Z,35.20
2019-02-25T16:19:53.125Z,22.50
2019-02-25T16:22:25.788Z,25.70
2019-02-25T16:24:56.974Z,25.93
2019-02-25T16:27:29.191Z,24.03
2019-02-25T16:30:00.651Z,25.37
2019-02-25T16:32:32.481Z,22.23
2019-02-25T16:35:04.969Z,23.63
2019-02-25T16:37:36.050Z,27.03
2019-02-25T16:40:10.423Z,21.90
2019-02-25T16:42:41.454Z,20.10
2019-02-25T16:45:17.196Z,22.17
2019-02-25T16:47:48.094Z,20.30
2019-02-25T16:50:20.949Z,22.23
2019-02-25T16:52:51.880Z,20.60
2019-02-25T16:55:25.067Z,20.13
2019-02-25T16:57:55.483Z,26.87
2019-02-25T17:00:29.407Z,23.07
2019-02-25T17:03:01.391Z,19.00
2019-02-25T17:05:30.904Z,23.33
2019-02-25T17:08:03.407Z,24.60
2019-02-25T17:10:34.126Z,28.07
2019-02-25T17:13:05.859Z,20.10
2019-02-25T17:15:37.386Z,26.03
2019-02-25T17:18:08.099Z,26.93
2019-02-25T17:20:38.667Z,20.90
2019-02-25T17:23:10.187Z,24.53
2019-02-25T17:25:43.340Z,26.70
2019-02-25T17:28:15.324Z,27.83
2019-02-25T17:30:47.356Z,21.93
2019-02-25T17:33:18.330Z,24.70
2019-02-25T17:35:49.857Z,35.27
2019-02-25T17:38:23.006Z,24.13
2019-02-25T17:40:53.816Z,21.43
2019-02-25T17:43:24.496Z,23.27
2019-02-25T17:45:56.382Z,24.87
2019-02-25T17:48:27.628Z,23.77
2019-02-25T17:50:59.895Z,21.33
2019-02-25T17:53:32.320Z,20.03
2019-02-25T17:56:04.731Z,25.17
2019-02-25T17:58:35.950Z,24.03
2019-02-25T18:01:09.597Z,29.20
2019-02-25T18:03:43.480Z,26.67
2019-02-25T18:06:16.658Z,25.30
2019-02-25T18:08:47.859Z,27.33
2019-02-25T18:11:20.279Z,25.90
2019-02-25T18:13:53.357Z,27.37
2019-02-25T18:16:24.422Z,22.67
2019-02-25T18:18:57.302Z,22.10
2019-02-25T18:21:28.954Z,27.77
2019-02-25T18:23:59.729Z,26.93
2019-02-25T18:26:31.109Z,27.27
2019-02-25T18:29:07.301Z,22.27
2019-02-25T18:31:37.967Z,24.93
2019-02-25T18:34:11.226Z,24.17
2019-02-25T18:36:42.586Z,27.23
2019-02-25T18:39:17.686Z,27.73
2019-02-25T18:41:48.770Z,35.80
2019-02-25T18:44:20.588Z,27.03
2019-02-25T18:46:52.321Z,30.73
2019-02-25T18:49:26.635Z,27.27
2019-02-25T18:51:57.308Z,24.33
2019-02-25T18:54:28.383Z,28.13
2019-02-25T18:57:00.762Z,26.57
2019-02-25T18:59:31.497Z,29.97
2019-02-25T19:02:07.453Z,31.80
2019-02-25T19:04:39.214Z,27.30
2019-02-25T19:07:10.498Z,33.37
2019-02-25T19:09:43.077Z,28.20
2019-02-25T19:12:13.999Z,33.80
2019-02-25T19:14:51.078Z,43.87
2019-02-25T19:17:20.970Z,27.63
2019-02-25T19:19:53.589Z,29.23
2019-02-25T19:22:24.486Z,35.53
2019-02-25T19:24:55.285Z,27.30
2019-02-25T19:27:27.746Z,29.77
2019-02-25T19:30:00.248Z,25.70
2019-02-25T19:32:33.405Z,26.53
2019-02-25T19:35:06.860Z,29.60
2019-02-25T19:37:38.216Z,30.37
2019-02-25T19:40:13.948Z,30.27
2019-02-25T19:42:47.298Z,29.23
2019-02-25T19:45:17.447Z,27.10
2019-02-25T19:47:48.379Z,25.30
2019-02-25T19:50:50.270Z,27.43
2019-02-25T19:53:04.825Z,24.87
2019-02-25T19:55:36.147Z,31.40
2019-02-25T19:58:08.295Z,29.50
2019-02-25T20:00:38.960Z,24.07
2019-02-25T20:03:09.667Z,27.80
2019-02-25T20:05:44.231Z,29.50
2019-02-25T20:08:14.581Z,35.20
2019-02-25T20:10:45.247Z,27.53
2019-02-25T20:13:15.824Z,32.93
2019-02-25T20:15:47.318Z,26.83
2019-02-25T20:18:19.112Z,25.97
2019-02-25T20:20:51.491Z,29.60
2019-02-25T20:23:22.815Z,28.77
2019-02-25T20:25:55.746Z,31.37
2019-02-25T20:28:29.166Z,28.63
2019-02-25T20:31:00.082Z,30.60
2019-02-25T20:33:33.016Z,35.27
2019-02-25T20:36:03.272Z,33.00
2019-02-25T20:38:34.789Z,25.13
2019-02-25T20:41:06.311Z,36.17
2019-02-25T20:43:37.115Z,28.70
2019-02-25T20:46:08.674Z,33.40
2019-02-25T20:48:39.398Z,31.73
2019-02-25T20:51:15.349Z,30.00
2019-02-25T20:53:46.678Z,32.70
2019-02-25T20:56:18.333Z,39.67
2019-02-25T20:58:49.233Z,30.90
2019-02-25T21:01:20.951Z,42.40
2019-02-25T21:03:52.678Z,33.87
2019-02-25T21:06:24.325Z,37.37
2019-02-25T21:08:54.975Z,29.50
2019-02-25T21:11:25.564Z,32.60
2019-02-25T21:13:56.713Z,38.80
2019-02-25T21:17:03.193Z,34.90
2019-02-25T21:19:37.882Z,39.30
2019-02-25T21:22:33.840Z,36.00
2019-02-25T21:25:07.281Z,32.97
2019-02-25T21:27:40.838Z,31.17
2019-02-25T21:30:37.181Z,26.80
2019-02-25T21:33:06.970Z,36.37
2019-02-25T21:38:41.890Z,26.83
2019-02-25T21:41:41.814Z,37.13
2019-02-25T21:48:07.668Z,30.80
2019-02-25T21:51:09.734Z,30.60
2019-02-25T21:53:46.745Z,28.27
2019-02-25T21:56:37.068Z,34.10
2019-02-25T21:59:08.750Z,32.27
2019-02-25T22:01:41.079Z,31.30
2019-02-25T22:07:17.126Z,35.60
2019-02-25T22:10:03.960Z,37.90
2019-02-25T22:12:46.443Z,33.67
2019-02-25T22:15:22.084Z,34.03
2019-02-25T22:18:04.410Z,31.47
2019-02-25T22:20:39.694Z,28.50
2019-02-25T22:23:21.983Z,37.20
2019-02-25T22:26:03.273Z,31.03
2019-02-25T22:28:39.326Z,32.90
2019-02-25T22:31:13.248Z,40.10
2019-02-25T22:34:03.631Z,38.07
2019-02-25T22:36:39.472Z,27.23
2019-02-25T22:39:33.874Z,29.70
2019-02-25T22:42:14.320Z,37.63
2019-02-25T22:44:56.152Z,35.50
2019-02-25T22:47:38.307Z,34.93
2019-02-25T22:50:15.580Z,38.70
2019-02-25T22:53:03.633Z,28.07
2019-02-25T22:55:44.683Z,33.43
2019-02-25T22:58:19.024Z,27.37
2019-02-25T23:01:04.662Z,27.73
2019-02-25T23:03:44.949Z,27.57
2019-02-25T23:06:18.451Z,31.83
2019-02-25T23:08:56.453Z,31.27
2019-02-25T23:11:34.390Z,36.87
2019-02-25T23:14:15.827Z,31.93
2019-02-25T23:17:08.840Z,30.07
2019-02-25T23:19:59.986Z,34.00
2019-02-25T23:22:38.739Z,33.47
2019-02-25T23:25:07.577Z,35.37
2019-02-25T23:27:38.989Z,28.77
2019-02-25T23:30:12.759Z,34.90
2019-02-25T23:32:47.263Z,30.37
2019-02-25T23:35:23.135Z,33.87
2019-02-25T23:37:56.733Z,32.67
2019-02-25T23:40:40.160Z,37.27
2019-02-25T23:43:14.949Z,34.63
2019-02-25T23:46:06.223Z,30.97
2019-02-25T23:51:37.186Z,29.50
2019-02-25T23:54:09.509Z,39.10
2019-02-25T23:56:43.906Z,32.90
2019-02-25T23:59:30.112Z,30.97
